Time;durP1;ratioP1;P1;durP2;ratioP2;P2;SDS_P1;SDS_P2;PMS_P1;PMS_P2;Temp;Humidity;BMP_temperature;BMP_pressure;BME280_temperature;BME280_humidity;BME280_pressure;Samples;Min_cycle;Max_cycle;Signal;HPM_P1;HPM_P2
2023/04/06 00:00:47;;;;;;;16.45;10.27;;;;;;;7.00;80.07;101872.38;5027417;28;20060;-65
2023/04/06 00:03:13;;;;;;;20.80;11.20;;;;;;;7.04;79.37;101868.84;5027930;28;20485;-66
2023/04/06 00:05:38;;;;;;;18.02;10.60;;;;;;;7.08;80.12;101864.50;5025896;28;20102;-65
2023/04/06 00:08:04;;;;;;;17.70;10.02;;;;;;;7.08;79.38;101865.34;5026893;28;20042;-63
2023/04/06 00:10:29;;;;;;;17.02;9.93;;;;;;;6.98;79.67;101866.25;5027393;28;20060;-65
2023/04/06 00:12:56;;;;;;;18.10;11.18;;;;;;;6.95;78.94;101864.50;5027647;28;20036;-65
2023/04/06 00:15:21;;;;;;;21.13;10.57;;;;;;;6.99;80.04;101867.13;5025029;28;20113;-66
2023/04/06 00:17:47;;;;;;;16.27;9.98;;;;;;;6.98;79.98;101858.38;5027345;28;20755;-64
2023/04/06 00:20:12;;;;;;;20.27;9.93;;;;;;;6.99;79.93;101862.78;5027244;28;20037;-64
2023/04/06 00:22:37;;;;;;;17.98;9.38;;;;;;;6.86;79.44;101859.28;5030193;28;20371;-63
2023/04/06 00:25:03;;;;;;;14.75;9.88;;;;;;;6.84;80.83;101855.81;5014311;28;20108;-64
2023/04/06 00:27:28;;;;;;;18.45;9.95;;;;;;;6.86;79.59;101847.94;5018220;28;20029;-63
2023/04/06 00:29:54;;;;;;;15.43;9.43;;;;;;;6.91;79.89;101851.41;5012066;28;20370;-64
2023/04/06 00:32:19;;;;;;;15.82;9.98;;;;;;;6.84;80.44;101845.34;5011103;28;20360;-66
2023/04/06 00:34:45;;;;;;;15.73;9.85;;;;;;;6.78;78.97;101837.47;5011858;28;20022;-65
2023/04/06 00:37:11;;;;;;;20.33;9.15;;;;;;;6.75;80.92;101837.47;5011877;28;20076;-64
2023/04/06 00:39:36;;;;;;;14.95;9.15;;;;;;;6.71;80.33;101839.22;5031409;28;20044;-63
2023/04/06 00:42:09;;;;;;;16.15;9.98;;;;;;;6.67;80.27;101835.75;5031138;28;20026;-64
2023/04/06 00:44:34;;;;;;;20.70;9.57;;;;;;;6.66;81.36;101827.91;5030803;28;20021;-63
2023/04/06 00:47:00;;;;;;;15.70;9.13;;;;;;;6.56;81.42;101822.66;5030637;28;20036;-66
2023/04/06 00:49:25;;;;;;;18.10;8.85;;;;;;;6.59;81.98;101828.78;5022669;28;20033;-65
2023/04/06 00:51:51;;;;;;;14.88;9.57;;;;;;;6.53;81.95;101824.44;5016759;28;20025;-63
2023/04/06 00:54:16;;;;;;;17.25;9.55;;;;;;;6.43;82.34;101818.31;5028848;28;20029;-66
2023/04/06 00:56:42;;;;;;;14.02;8.82;;;;;;;6.40;83.16;101810.47;5028336;28;20029;-64
2023/04/06 00:59:07;;;;;;;17.73;9.30;;;;;;;6.36;83.48;101817.47;4995035;28;20038;-64
2023/04/06 01:01:33;;;;;;;16.23;9.70;;;;;;;6.29;83.77;101813.97;5019117;28;20026;-64
2023/04/06 01:03:58;;;;;;;15.35;9.88;;;;;;;6.23;84.35;101807.88;5087830;22;20037;-64
2023/04/06 01:06:23;;;;;;;15.20;9.23;;;;;;;6.20;84.37;101803.47;5029888;28;20029;-64
2023/04/06 01:08:49;;;;;;;15.23;9.73;;;;;;;6.18;84.54;101793.00;5049547;28;20045;-66
2023/04/06 01:11:14;;;;;;;18.30;10.13;;;;;;;6.18;84.03;101797.38;5049079;28;20075;-63
2023/04/06 01:13:39;;;;;;;17.52;10.48;;;;;;;6.21;83.71;101796.50;5039150;28;20102;-64
2023/04/06 01:16:05;;;;;;;14.77;9.52;;;;;;;6.16;83.96;101796.50;5049299;28;20136;-66
2023/04/06 01:18:31;;;;;;;18.25;9.93;;;;;;;6.19;84.25;101794.78;5047978;28;20025;-64
2023/04/06 01:20:56;;;;;;;17.58;9.45;;;;;;;6.19;84.08;101788.66;5030634;28;20686;-64
2023/04/06 01:23:21;;;;;;;16.50;9.77;;;;;;;6.21;84.26;101786.03;5030687;28;20493;-66
2023/04/06 01:25:47;;;;;;;15.48;9.23;;;;;;;6.17;84.51;101779.94;5038097;28;20464;-65
2023/04/06 01:28:12;;;;;;;15.73;9.52;;;;;;;6.25;84.59;101778.19;5028800;28;20031;-64
2023/04/06 01:30:37;;;;;;;20.42;9.43;;;;;;;6.28;83.53;101778.19;5028111;28;20116;-66
2023/04/06 01:33:03;;;;;;;18.38;9.82;;;;;;;6.30;84.42;101765.94;5028147;28;20021;-67
2023/04/06 01:35:29;;;;;;;16.88;9.98;;;;;;;6.31;84.82;101762.47;5029176;28;20460;-64
2023/04/06 01:37:55;;;;;;;14.43;10.05;;;;;;;6.36;84.24;101766.84;5029063;28;20033;-64
2023/04/06 01:40:20;;;;;;;19.15;9.93;;;;;;;6.36;83.93;101753.75;5011252;28;20043;-65
2023/04/06 01:42:46;;;;;;;14.18;8.80;;;;;;;6.43;83.34;101750.25;5027670;28;20052;-64
2023/04/06 01:45:11;;;;;;;15.52;9.63;;;;;;;6.44;83.60;101752.84;5028319;28;20091;-65
2023/04/06 01:47:36;;;;;;;19.00;9.90;;;;;;;6.38;84.19;101746.78;5028930;28;20041;-64
2023/04/06 01:50:05;;;;;;;15.30;8.85;;;;;;;6.44;84.85;101747.63;5029215;28;20464;-68
2023/04/06 01:52:30;;;;;;;19.30;9.87;;;;;;;6.54;83.44;101743.22;5029144;28;20101;-66
2023/04/06 01:54:55;;;;;;;16.13;9.77;;;;;;;6.44;83.89;101744.13;5029145;28;20448;-66
2023/04/06 01:57:21;;;;;;;16.13;9.70;;;;;;;6.44;83.52;101741.50;5028091;28;20029;-65
2023/04/06 01:59:46;;;;;;;17.27;9.50;;;;;;;6.48;83.10;101743.25;5028032;28;20030;-64
2023/04/06 02:02:12;;;;;;;15.75;9.88;;;;;;;6.50;83.33;101736.25;5027641;28;20026;-64
2023/04/06 02:04:38;;;;;;;17.83;10.65;;;;;;;6.58;82.80;101736.25;5027044;28;20056;-64
2023/04/06 02:07:03;;;;;;;18.25;9.80;;;;;;;6.60;82.83;101738.84;5009482;28;20025;-63
2023/04/06 02:09:29;;;;;;;16.88;10.32;;;;;;;6.51;82.73;101732.78;5038906;28;20120;-65
2023/04/06 02:11:55;;;;;;;17.17;10.25;;;;;;;6.50;84.03;101733.63;5025946;28;20060;-65
2023/04/06 02:14:20;;;;;;;14.95;9.38;;;;;;;6.54;82.76;101727.50;5026780;28;20779;-65
2023/04/06 02:16:46;;;;;;;19.50;10.75;;;;;;;6.50;83.33;101719.69;5027732;28;20025;-65
2023/04/06 02:19:11;;;;;;;19.92;9.68;;;;;;;6.56;83.33;101723.16;5026519;28;20105;-65
2023/04/06 02:21:36;;;;;;;17.08;9.77;;;;;;;6.60;84.52;101720.53;5033929;28;20025;-65
2023/04/06 02:24:02;;;;;;;16.70;9.98;;;;;;;6.48;84.23;101717.06;5047136;28;20371;-63
2023/04/06 02:26:27;;;;;;;15.55;10.02;;;;;;;6.53;84.13;101710.06;5028589;28;20021;-63
2023/04/06 02:28:52;;;;;;;19.88;10.50;;;;;;;6.55;83.75;101713.56;5046421;28;20043;-64
2023/04/06 02:31:18;;;;;;;16.58;10.45;;;;;;;6.57;84.04;101711.78;5046347;28;20029;-65
2023/04/06 02:33:43;;;;;;;19.73;11.02;;;;;;;6.54;84.31;101709.19;5037791;28;20032;-64
2023/04/06 02:36:08;;;;;;;16.20;10.63;;;;;;;6.47;84.55;101702.22;5026170;28;20026;-64
2023/04/06 02:38:34;;;;;;;16.05;10.90;;;;;;;6.41;84.46;101694.41;5026174;28;20083;-65
2023/04/06 02:41:00;;;;;;;19.50;10.93;;;;;;;6.48;84.03;101696.13;5027320;28;20037;-64
2023/04/06 02:43:25;;;;;;;14.77;9.80;;;;;;;6.51;84.77;101703.09;5026690;28;20037;-64
2023/04/06 02:45:50;;;;;;;18.60;11.15;;;;;;;6.41;85.76;101697.03;5026491;28;20029;-64
2023/04/06 02:48:16;;;;;;;14.75;10.30;;;;;;;6.50;85.09;101694.34;5026679;28;20029;-65
2023/04/06 02:50:41;;;;;;;19.23;10.77;;;;;;;6.40;85.32;101700.50;5026590;28;20033;-64
2023/04/06 02:53:06;;;;;;;17.98;10.40;;;;;;;6.35;86.42;101690.03;5028391;28;20025;-62
2023/04/06 02:55:31;;;;;;;18.38;10.27;;;;;;;6.44;85.54;101694.38;5046820;28;20053;-63
2023/04/06 02:57:57;;;;;;;20.30;9.93;;;;;;;6.36;86.06;101685.69;5046825;28;20033;-66
2023/04/06 03:00:22;;;;;;;17.95;10.30;;;;;;;6.38;86.27;101689.19;5045878;28;20597;-64
2023/04/06 03:02:47;;;;;;;19.55;11.38;;;;;;;6.33;86.92;101678.72;5046572;28;20104;-65
2023/04/06 03:05:13;;;;;;;19.48;11.60;;;;;;;6.41;86.49;101682.16;5008285;28;1059565;-64
2023/04/06 03:07:38;;;;;;;21.42;10.98;;;;;;;6.34;87.48;101676.94;5047266;28;20033;-65
2023/04/06 03:10:04;;;;;;;21.55;11.00;;;;;;;6.43;88.08;101674.31;5045827;28;20048;-63
2023/04/06 03:12:29;;;;;;;20.17;10.93;;;;;;;6.47;87.65;101673.41;5046948;28;20025;-66
2023/04/06 03:14:55;;;;;;;16.83;9.85;;;;;;;6.33;87.67;101670.88;5046599;28;20021;-65
2023/04/06 03:17:20;;;;;;;22.90;11.10;;;;;;;6.39;87.73;101672.59;5046106;28;20021;-63
2023/04/06 03:19:45;;;;;;;16.40;10.60;;;;;;;6.43;88.06;101663.84;5046856;28;20394;-64
2023/04/06 03:22:11;;;;;;;21.50;10.90;;;;;;;6.29;89.32;101669.13;5045845;28;20029;-64
2023/04/06 03:24:36;;;;;;;15.85;11.13;;;;;;;6.35;88.96;101658.63;5046341;28;20044;-65
2023/04/06 03:27:01;;;;;;;21.55;12.63;;;;;;;6.34;89.99;101662.13;5046364;28;20028;-65
2023/04/06 03:29:27;;;;;;;21.40;12.95;;;;;;;6.33;90.10;101657.78;5029510;28;20025;-65
2023/04/06 03:31:52;;;;;;;18.25;11.25;;;;;;;6.31;90.10;101655.16;5026487;28;20057;-65
2023/04/06 03:34:17;;;;;;;19.50;12.02;;;;;;;6.30;90.54;101656.00;5026035;28;20057;-64
2023/04/06 03:36:43;;;;;;;21.90;12.13;;;;;;;6.30;90.94;101655.16;5026244;28;20053;-64
2023/04/06 03:39:08;;;;;;;24.42;12.35;;;;;;;6.23;92.47;101654.28;5026121;28;20034;-64
2023/04/06 03:41:33;;;;;;;21.95;11.75;;;;;;;6.20;92.54;101651.69;5026825;28;20025;-64
2023/04/06 03:43:59;;;;;;;24.98;13.27;;;;;;;6.13;93.09;101649.97;5037907;28;20056;-64
2023/04/06 03:46:24;;;;;;;15.35;10.55;;;;;;;6.25;92.41;101649.06;5046759;28;20751;-65
2023/04/06 03:48:50;;;;;;;24.45;13.13;;;;;;;6.12;93.08;101646.50;5045905;28;20029;-63
2023/04/06 03:51:15;;;;;;;20.08;12.23;;;;;;;6.17;93.51;101644.72;5045627;28;20040;-65
2023/04/06 03:53:40;;;;;;;22.52;12.38;;;;;;;6.12;94.86;101645.59;5045487;28;20504;-63
2023/04/06 03:56:06;;;;;;;23.48;12.73;;;;;;;6.12;94.95;101646.50;5036148;28;20104;-65
2023/04/06 03:58:31;;;;;;;20.08;12.27;;;;;;;6.13;95.05;101645.59;5030616;28;20233;-67
2023/04/06 04:00:56;;;;;;;20.33;12.43;;;;;;;6.15;95.36;101645.59;5030224;28;20067;-66
2023/04/06 04:03:23;;;;;;;23.00;13.18;;;;;;;6.09;94.96;101646.50;5029704;28;20144;-64
2023/04/06 04:05:49;;;;;;;21.73;12.80;;;;;;;6.13;95.22;101637.75;5029747;28;20083;-64
2023/04/06 04:08:15;;;;;;;22.65;13.63;;;;;;;6.13;95.44;101636.88;5031755;28;20373;-64
2023/04/06 04:10:40;;;;;;;29.42;12.73;;;;;;;6.13;96.08;101645.59;5051430;28;20171;-65
2023/04/06 04:13:05;;;;;;;23.02;14.00;;;;;;;6.14;95.94;101636.03;5032406;28;20055;-64
2023/04/06 04:15:31;;;;;;;22.58;13.10;;;;;;;6.10;95.90;101640.38;5050537;28;20529;-66
2023/04/06 04:17:56;;;;;;;21.35;12.32;;;;;;;6.09;96.13;101637.75;5025738;28;20503;-65
2023/04/06 04:20:21;;;;;;;20.40;13.07;;;;;;;6.16;95.46;101632.53;5030312;28;20042;-63
2023/04/06 04:22:47;;;;;;;27.08;13.70;;;;;;;6.13;96.50;101636.88;5030482;28;20423;-65
2023/04/06 04:25:13;;;;;;;22.92;13.05;;;;;;;6.17;96.57;101636.00;5030632;28;20111;-65
2023/04/06 04:27:38;;;;;;;20.90;12.50;;;;;;;6.13;97.07;101642.09;5012950;28;20045;-67
2023/04/06 04:30:07;;;;;;;22.30;13.90;;;;;;;6.18;97.15;101642.97;5036558;28;20122;-65
2023/04/06 04:32:32;;;;;;;23.70;14.20;;;;;;;6.18;96.28;101642.97;5050578;28;20159;-66
2023/04/06 04:34:57;;;;;;;25.42;13.15;;;;;;;6.19;96.87;101634.25;5049100;28;20100;-63
2023/04/06 04:37:23;;;;;;;22.95;12.18;;;;;;;6.19;96.45;101635.13;5048894;28;20114;-65
2023/04/06 04:39:48;;;;;;;26.60;13.27;;;;;;;6.09;97.81;101636.03;5048794;28;20092;-63
2023/04/06 04:42:14;;;;;;;26.38;14.27;;;;;;;6.16;97.80;101631.63;5049999;28;20033;-64
2023/04/06 04:44:39;;;;;;;24.35;14.50;;;;;;;6.19;98.22;101626.41;5031755;28;20044;-66
2023/04/06 04:47:05;;;;;;;21.02;12.90;;;;;;;6.23;98.26;101630.75;5050142;28;20025;-65
2023/04/06 04:49:30;;;;;;;19.92;13.02;;;;;;;6.17;98.41;101631.63;5049997;28;20021;-68
2023/04/06 04:51:56;;;;;;;23.40;13.98;;;;;;;6.13;99.18;101632.53;5048691;28;20518;-64
2023/04/06 04:54:21;;;;;;;24.52;14.30;;;;;;;6.19;98.92;101631.63;5050010;28;20044;-64
2023/04/06 04:56:46;;;;;;;29.95;14.15;;;;;;;6.21;100.00;101629.00;5047647;28;20736;-65
2023/04/06 04:59:12;;;;;;;21.73;13.80;;;;;;;6.27;99.74;101629.00;5049270;28;20040;-64
2023/04/06 05:01:37;;;;;;;27.05;14.40;;;;;;;6.20;100.00;101628.13;5048648;28;20052;-64
2023/04/06 05:04:02;;;;;;;24.13;13.93;;;;;;;6.26;100.00;101628.13;5049931;28;20471;-66
2023/04/06 05:06:28;;;;;;;24.15;14.23;;;;;;;6.23;100.00;101627.28;5044443;28;20105;-65
2023/04/06 05:08:53;;;;;;;24.30;13.38;;;;;;;6.30;99.46;101629.84;5016517;28;20033;-64
2023/04/06 05:11:18;;;;;;;24.55;14.27;;;;;;;6.34;99.93;101630.72;5047942;28;20040;-64
2023/04/06 05:13:44;;;;;;;22.27;13.80;;;;;;;6.41;100.00;101627.19;5032037;28;20056;-65
2023/04/06 05:16:09;;;;;;;20.85;14.35;;;;;;;6.46;99.56;101632.41;5048999;28;20024;-64
2023/04/06 05:18:35;;;;;;;24.92;13.98;;;;;;;6.45;99.75;101626.28;5049442;28;20024;-64
2023/04/06 05:21:00;;;;;;;26.20;15.27;;;;;;;6.43;100.00;101614.97;5048481;28;20033;-66
2023/04/06 05:23:25;;;;;;;25.70;14.70;;;;;;;6.48;99.93;101617.59;5043211;28;20111;-66
2023/04/06 05:25:51;;;;;;;26.58;14.00;;;;;;;6.49;100.00;101618.44;5032538;28;20590;-64
2023/04/06 05:28:17;;;;;;;21.55;14.20;;;;;;;6.57;99.88;101622.75;5038711;28;20017;-64
2023/04/06 05:30:43;;;;;;;26.20;14.77;;;;;;;6.61;100.00;101620.13;5030798;28;20029;-65
2023/04/06 05:33:09;;;;;;;25.33;14.75;;;;;;;6.63;99.81;101615.75;5014141;28;20029;-66
2023/04/06 05:35:35;;;;;;;23.33;14.57;;;;;;;6.69;99.40;101615.75;5028776;28;20453;-66
2023/04/06 05:38:00;;;;;;;32.22;14.60;;;;;;;6.77;98.81;101623.56;5048296;28;20064;-65
2023/04/06 05:40:25;;;;;;;25.13;13.77;;;;;;;6.82;98.88;101608.69;5048696;28;20490;-66
2023/04/06 05:42:51;;;;;;;26.13;15.55;;;;;;;6.86;98.82;101617.41;5047021;28;20028;-65
2023/04/06 05:45:18;;;;;;;22.85;15.07;;;;;;;6.91;99.11;101613.00;5030524;28;20360;-64
2023/04/06 05:47:44;;;;;;;28.88;15.38;;;;;;;6.97;98.70;101620.81;5029734;28;20100;-66
2023/04/06 05:50:10;;;;;;;31.38;16.10;;;;;;;7.02;98.70;101613.81;5047256;28;20550;-64
2023/04/06 05:52:35;;;;;;;27.70;14.38;;;;;;;7.06;98.31;101615.53;5047911;28;20029;-65
2023/04/06 05:55:01;;;;;;;27.40;15.88;;;;;;;7.03;98.85;101619.91;5048139;28;20104;-65
2023/04/06 05:57:26;;;;;;;25.65;15.77;;;;;;;7.03;99.53;101610.31;5045943;28;20043;-65
2023/04/06 05:59:51;;;;;;;28.50;16.17;;;;;;;7.14;99.50;101614.59;5047562;28;20028;-65
2023/04/06 06:02:17;;;;;;;32.60;16.25;;;;;;;7.16;98.62;101613.69;5046293;28;20033;-64
2023/04/06 06:04:42;;;;;;;28.65;15.27;;;;;;;7.23;98.98;101617.16;5046579;28;20041;-65
2023/04/06 06:07:08;;;;;;;33.92;15.55;;;;;;;7.21;99.45;101613.66;5029740;28;20107;-65
2023/04/06 06:09:33;;;;;;;35.08;15.95;;;;;;;7.31;98.46;101614.47;5047031;28;20037;-64
2023/04/06 06:11:59;;;;;;;34.80;17.00;;;;;;;7.25;98.24;101610.13;5048036;28;20025;-66
2023/04/06 06:14:25;;;;;;;28.05;15.35;;;;;;;7.25;98.79;101615.38;5047263;28;20099;-65
2023/04/06 06:16:50;;;;;;;27.95;15.15;;;;;;;7.26;98.78;101614.50;5047964;28;20814;-63
2023/04/06 06:19:15;;;;;;;26.83;14.93;;;;;;;7.33;98.92;101610.97;5046224;28;20027;-65
2023/04/06 06:21:41;;;;;;;28.33;16.27;;;;;;;7.43;98.79;101603.00;5044251;28;20025;-64
2023/04/06 06:24:07;;;;;;;32.60;16.73;;;;;;;7.36;100.00;101612.69;5047436;28;20112;-65
2023/04/06 06:26:32;;;;;;;25.45;15.88;;;;;;;7.41;99.50;101612.66;5048108;28;20017;-65
2023/04/06 06:28:57;;;;;;;27.83;16.25;;;;;;;7.39;100.00;101612.66;5029298;28;20105;-65
2023/04/06 06:31:23;;;;;;;26.92;16.15;;;;;;;7.44;100.00;101610.00;5047627;28;20052;-64
2023/04/06 06:33:51;;;;;;;28.50;16.58;;;;;;;7.45;100.00;101606.50;5047618;28;20021;-64
2023/04/06 06:36:17;;;;;;;28.45;16.60;;;;;;;7.49;100.00;101616.06;5045111;28;20085;-64
2023/04/06 06:38:43;;;;;;;33.63;17.80;;;;;;;7.51;100.00;101611.69;5046585;28;20120;-65
2023/04/06 06:41:08;;;;;;;29.98;17.65;;;;;;;7.55;100.00;101613.41;5047724;28;20083;-66
2023/04/06 06:43:33;;;;;;;26.02;15.35;;;;;;;7.74;100.00;101613.25;5047284;28;20173;-67
2023/04/06 06:45:59;;;;;;;35.97;16.45;;;;;;;7.83;99.79;101615.75;5047891;28;20025;-66
2023/04/06 06:48:24;;;;;;;32.55;15.88;;;;;;;7.83;100.00;101610.50;5047461;28;20159;-64
2023/04/06 06:50:50;;;;;;;28.83;16.48;;;;;;;7.93;100.00;101607.78;5047206;28;20067;-65
2023/04/06 06:53:15;;;;;;;34.05;16.90;;;;;;;8.04;100.00;101608.53;5046661;28;20175;-64
2023/04/06 06:55:40;;;;;;;31.33;16.80;;;;;;;8.03;100.00;101608.56;5046160;28;20122;-65
2023/04/06 06:58:06;;;;;;;31.40;17.42;;;;;;;8.08;99.65;101605.03;5044905;28;20056;-65
2023/04/06 07:00:32;;;;;;;36.63;17.42;;;;;;;8.18;99.59;101599.63;5046261;28;20025;-65
2023/04/06 07:02:57;;;;;;;30.45;17.50;;;;;;;8.37;99.76;101602.06;5046224;28;20052;-64
2023/04/06 07:05:22;;;;;;;32.70;18.08;;;;;;;8.41;99.13;101599.38;5044141;28;20475;-65
2023/04/06 07:07:48;;;;;;;31.85;17.90;;;;;;;8.41;97.91;101603.75;5045160;28;20111;-64
2023/04/06 07:10:13;;;;;;;28.42;17.23;;;;;;;8.33;98.98;101596.84;5045447;28;20021;-64
2023/04/06 07:12:38;;;;;;;34.58;17.67;;;;;;;8.49;99.33;101596.63;5047247;28;20410;-64
2023/04/06 07:15:04;;;;;;;31.10;17.15;;;;;;;8.63;99.28;101596.50;5044916;28;20475;-65
2023/04/06 07:17:30;;;;;;;30.42;17.70;;;;;;;8.71;98.57;101601.66;5046097;28;20028;-64
2023/04/06 07:19:55;;;;;;;29.63;16.83;;;;;;;8.67;98.11;101594.72;5046089;28;20331;-63
2023/04/06 07:22:20;;;;;;;38.97;18.00;;;;;;;8.80;98.57;101591.03;5045741;28;20110;-63
2023/04/06 07:24:46;;;;;;;28.30;17.55;;;;;;;8.99;96.54;101598.63;5029098;28;20114;-65
2023/04/06 07:27:11;;;;;;;32.47;18.52;;;;;;;8.88;97.02;101587.41;5046343;28;20049;-63
2023/04/06 07:29:36;;;;;;;32.10;18.02;;;;;;;9.27;96.30;101590.28;5047073;28;20509;-64
2023/04/06 07:32:02;;;;;;;33.50;17.48;;;;;;;9.33;94.75;101579.66;5044907;28;20527;-64
2023/04/06 07:34:27;;;;;;;29.52;17.67;;;;;;;9.03;93.44;101576.63;5038589;28;20196;-63
2023/04/06 07:36:53;;;;;;;30.25;17.35;;;;;;;9.21;93.96;101583.38;5039522;28;20045;-63
2023/04/06 07:39:19;;;;;;;30.40;17.10;;;;;;;9.40;94.08;101575.19;5045079;28;20048;-62
2023/04/06 07:41:44;;;;;;;29.35;17.58;;;;;;;9.30;93.75;101576.25;5036855;28;20022;-66
2023/04/06 07:44:09;;;;;;;36.70;17.95;;;;;;;9.29;94.25;101577.13;5038032;28;20029;-62
2023/04/06 07:46:36;;;;;;;30.02;18.58;;;;;;;9.39;94.60;101581.31;5027075;28;20087;-62
2023/04/06 07:49:01;;;;;;;30.25;17.95;;;;;;;9.40;93.23;101584.84;5025554;28;20041;-65
2023/04/06 07:51:27;;;;;;;35.50;17.98;;;;;;;9.34;95.15;101584.03;5027088;28;20030;-64
2023/04/06 07:53:52;;;;;;;34.95;19.30;;;;;;;9.57;94.46;101582.78;5026887;28;20499;-62
2023/04/06 07:56:18;;;;;;;33.88;17.98;;;;;;;9.51;93.99;101585.50;5026396;28;20476;-62
2023/04/06 07:58:43;;;;;;;32.38;18.73;;;;;;;9.51;93.16;101582.88;5039415;28;20470;-64
2023/04/06 08:01:08;;;;;;;32.55;19.85;;;;;;;9.56;94.25;101583.69;5026999;28;20018;-63
2023/04/06 08:03:35;;;;;;;33.78;18.33;;;;;;;9.76;93.93;101584.22;5030850;28;20769;-60
2023/04/06 08:06:00;;;;;;;32.63;18.65;;;;;;;9.85;91.35;101589.31;5041946;28;20028;-67
2023/04/06 08:08:26;;;;;;;28.20;17.58;;;;;;;10.00;91.45;101590.78;5043987;28;20021;-63
2023/04/06 08:10:51;;;;;;;32.50;19.35;;;;;;;10.07;91.39;101586.25;5026920;28;20094;-63
2023/04/06 08:13:16;;;;;;;30.50;18.55;;;;;;;9.97;92.29;101593.47;5042781;28;20487;-63
2023/04/06 08:15:42;;;;;;;31.95;18.40;;;;;;;9.81;94.81;101587.63;5044501;28;20535;-63
2023/04/06 08:18:08;;;;;;;36.53;18.60;;;;;;;9.80;95.58;101585.88;5044007;28;20035;-64
2023/04/06 08:20:34;;;;;;;39.60;19.00;;;;;;;9.91;94.82;101590.94;5043278;28;20032;-66
2023/04/06 08:22:59;;;;;;;37.10;19.48;;;;;;;9.78;95.73;101588.53;5029257;28;20036;-65
2023/04/06 08:25:25;;;;;;;31.23;18.52;;;;;;;10.08;95.36;101587.97;5027182;28;20032;-62
2023/04/06 08:27:51;;;;;;;35.00;18.35;;;;;;;10.19;94.49;101591.28;5044840;28;20098;-62
2023/04/06 08:30:18;;;;;;;28.63;18.33;;;;;;;10.31;94.35;101591.91;5045421;28;20112;-62
2023/04/06 08:32:44;;;;;;;30.70;18.58;;;;;;;10.23;95.00;101592.06;5044239;28;20062;-64
2023/04/06 08:35:09;;;;;;;33.90;18.58;;;;;;;10.20;96.60;101595.63;5043483;28;20025;-62
2023/04/06 08:37:35;;;;;;;35.60;19.25;;;;;;;10.31;96.95;101590.16;5045170;28;20021;-64
2023/04/06 08:40:00;;;;;;;32.67;18.38;;;;;;;10.30;99.47;101588.41;5044105;28;20017;-66
2023/04/06 08:42:26;;;;;;;28.30;17.52;;;;;;;10.47;99.43;101590.72;5046329;28;20021;-65
2023/04/06 08:44:52;;;;;;;31.05;17.05;;;;;;;10.43;100.00;101589.03;5046547;28;20079;-63
2023/04/06 08:47:17;;;;;;;29.67;18.52;;;;;;;10.58;100.00;101592.25;5029394;28;20025;-63
2023/04/06 08:49:44;;;;;;;33.95;19.33;;;;;;;10.70;100.00;101588.50;5046223;28;20025;-62
2023/04/06 08:52:10;;;;;;;36.13;17.35;;;;;;;10.70;100.00;101585.84;5047951;28;20025;-63
2023/04/06 08:54:35;;;;;;;32.35;17.33;;;;;;;10.79;100.00;101584.78;5047138;28;20021;-64
2023/04/06 08:57:02;;;;;;;31.65;16.60;;;;;;;11.03;100.00;101582.47;5040790;28;20130;-64
2023/04/06 08:59:28;;;;;;;32.25;17.10;;;;;;;11.15;100.00;101587.47;5050170;28;20052;-65
2023/04/06 09:01:54;;;;;;;31.05;14.15;;;;;;;11.14;98.73;101575.19;5031260;28;20733;-63
2023/04/06 09:04:20;;;;;;;22.80;12.52;;;;;;;11.25;97.42;101575.78;5030749;28;20043;-62
2023/04/06 09:06:45;;;;;;;24.55;13.20;;;;;;;11.34;97.08;101587.88;5050842;28;20367;-65
2023/04/06 09:09:11;;;;;;;20.58;12.40;;;;;;;11.14;96.74;101575.19;5039199;28;20029;-63
2023/04/06 09:11:43;;;;;;;20.48;11.93;;;;;;;11.18;96.15;101581.25;5030369;28;20018;-65
2023/04/06 09:14:09;;;;;;;24.67;12.43;;;;;;;11.40;95.88;101589.47;5028825;28;20037;-65
2023/04/06 09:16:45;;;;;;;21.10;10.85;;;;;;;11.22;95.57;101580.25;5029436;28;20033;-63
2023/04/06 09:19:11;;;;;;;19.55;10.25;;;;;;;11.23;94.78;101584.66;5015318;28;20035;-62
2023/04/06 09:21:37;;;;;;;23.48;10.23;;;;;;;11.06;95.63;101583.28;5049096;28;20102;-62
2023/04/06 09:24:03;;;;;;;19.17;10.45;;;;;;;11.10;96.98;101584.94;5032416;28;20056;-62
2023/04/06 09:26:29;;;;;;;18.77;10.75;;;;;;;10.94;98.22;101580.91;5049732;28;20536;-65
2023/04/06 09:29:00;;;;;;;18.52;10.40;;;;;;;11.06;97.27;101575.38;5049653;28;20047;-65
2023/04/06 09:31:32;;;;;;;18.38;10.10;;;;;;;10.99;98.97;101576.41;5050702;28;20024;-63
2023/04/06 09:33:58;;;;;;;14.65;9.73;;;;;;;10.74;100.00;101564.66;5048445;28;20060;-64
2023/04/06 09:36:41;;;;;;;19.65;11.20;;;;;;;10.88;99.90;101574.03;5044650;28;20032;-65
2023/04/06 09:39:07;;;;;;;16.85;9.65;;;;;;;10.96;100.00;101577.34;5049641;28;20108;-63
2023/04/06 09:41:34;;;;;;;19.30;9.05;;;;;;;10.92;100.00;101565.13;5049544;28;20032;-62
2023/04/06 09:44:11;;;;;;;20.33;8.05;;;;;;;10.55;100.00;101577.41;5048392;28;20033;-63
2023/04/06 09:46:39;;;;;;;14.68;7.40;;;;;;;10.83;100.00;101566.22;5025640;28;20471;-62
2023/04/06 09:49:05;;;;;;;12.35;8.15;;;;;;;10.78;100.00;101570.75;5048212;28;20021;-63
2023/04/06 09:51:38;;;;;;;14.82;7.32;;;;;;;10.79;100.00;101575.13;5044989;28;20147;-63
2023/04/06 09:54:04;;;;;;;14.38;6.32;;;;;;;10.84;100.00;101564.47;5047804;28;20044;-62
2023/04/06 09:56:51;;;;;;;10.18;6.20;;;;;;;10.88;100.00;101558.22;5028828;28;20017;-63
2023/04/06 09:59:21;;;;;;;13.25;7.25;;;;;;;10.47;100.00;101563.50;5019170;28;20032;-68
2023/04/06 10:01:48;;;;;;;14.30;6.88;;;;;;;10.29;100.00;101564.75;5029210;28;20147;-64
2023/04/06 10:04:38;;;;;;;9.48;6.75;;;;;;;10.38;100.00;101564.53;5045013;28;20041;-63
2023/04/06 10:07:04;;;;;;;10.52;6.45;;;;;;;10.58;100.00;101566.78;5030442;28;20065;-64
2023/04/06 10:09:35;;;;;;;10.48;7.15;;;;;;;10.49;100.00;101561.72;5041169;28;20113;-66
2023/04/06 10:12:03;;;;;;;11.40;6.43;;;;;;;10.56;100.00;101555.41;5026946;28;20493;-64
2023/04/06 10:14:30;;;;;;;11.45;6.90;;;;;;;10.61;100.00;101558.81;5044999;28;20450;-62
2023/04/06 10:16:55;;;;;;;10.52;6.85;;;;;;;10.59;100.00;101555.34;5015683;28;20662;-64
2023/04/06 10:19:26;;;;;;;14.20;6.93;;;;;;;10.79;100.00;101551.38;5008902;28;20049;-63
2023/04/06 10:21:54;;;;;;;8.38;6.63;;;;;;;10.83;100.00;101550.41;5017673;28;20104;-62
2023/04/06 10:24:20;;;;;;;10.20;7.07;;;;;;;10.87;100.00;101552.06;5030154;28;20045;-64
2023/04/06 10:26:57;;;;;;;10.68;7.28;;;;;;;10.42;100.00;101539.84;5044414;28;20821;-64
2023/04/06 10:29:22;;;;;;;11.65;7.22;;;;;;;10.43;100.00;101543.38;5047582;28;20033;-63
2023/04/06 10:31:48;;;;;;;10.48;6.85;;;;;;;10.73;100.00;101544.50;5046756;28;20097;-66
2023/04/06 10:34:14;;;;;;;12.18;6.97;;;;;;;10.63;100.00;101534.19;5046965;28;20098;-62
2023/04/06 10:36:39;;;;;;;12.38;7.03;;;;;;;10.69;100.00;101531.41;5046921;28;20045;-65
2023/04/06 10:39:06;;;;;;;9.90;7.50;;;;;;;10.63;100.00;101539.47;5034767;28;20026;-64
2023/04/06 10:41:33;;;;;;;12.77;7.32;;;;;;;10.53;100.00;101534.38;5040807;28;20100;-65
2023/04/06 10:43:59;;;;;;;11.07;7.95;;;;;;;10.17;100.00;101532.50;5046047;28;20033;-64
2023/04/06 10:46:26;;;;;;;11.15;7.53;;;;;;;10.20;100.00;101527.16;5046934;28;20020;-64
2023/04/06 10:48:51;;;;;;;9.85;6.68;;;;;;;10.36;100.00;101527.69;5046832;28;20032;-63
2023/04/06 10:51:17;;;;;;;9.35;7.13;;;;;;;10.31;100.00;101518.16;5043287;28;20021;-65
2023/04/06 10:53:47;;;;;;;11.85;7.93;;;;;;;10.19;100.00;101517.53;5040406;28;20035;-63
2023/04/06 10:56:17;;;;;;;10.98;7.45;;;;;;;10.15;100.00;101518.50;5047620;28;20424;-64
2023/04/06 10:58:50;;;;;;;9.80;7.03;;;;;;;10.32;100.00;101510.22;5048480;28;20460;-64
2023/04/06 11:01:17;;;;;;;10.50;7.68;;;;;;;10.31;100.00;101508.50;5045867;28;20021;-62
2023/04/06 11:03:46;;;;;;;15.02;7.63;;;;;;;10.34;100.00;101503.16;5047680;28;20044;-64
2023/04/06 11:06:22;;;;;;;10.50;7.28;;;;;;;10.31;100.00;101511.13;5041768;28;20033;-64
2023/04/06 11:08:49;;;;;;;9.73;7.43;;;;;;;10.26;100.00;101513.00;5045298;28;20103;-64
2023/04/06 11:11:18;;;;;;;9.02;7.10;;;;;;;10.16;100.00;101516.72;5047358;28;20129;-63